sensor_id;sensor_type;location;lat;lon;timestamp;P1;durP1;ratioP1;P2;durP2;ratioP2
71836;SDS011;59686;51.716;7.016;2022-12-07T00:01:25;9.47;;;8.37;;
71836;SDS011;59686;51.716;7.016;2022-12-07T00:03:53;10.43;;;7.87;;
71836;SDS011;59686;51.716;7.016;2022-12-07T00:06:22;9.67;;;7.87;;
71836;SDS011;59686;51.716;7.016;2022-12-07T00:08:48;9.37;;;7.97;;
71836;SDS011;59686;51.716;7.016;2022-12-07T00:11:15;8.87;;;7.97;;
71836;SDS011;59686;51.716;7.016;2022-12-07T00:13:42;9.57;;;8.23;;
71836;SDS011;59686;51.716;7.016;2022-12-07T00:16:10;10.70;;;7.83;;
71836;SDS011;59686;51.716;7.016;2022-12-07T00:18:37;10.03;;;8.03;;
71836;SDS011;59686;51.716;7.016;2022-12-07T00:21:23;12.43;;;8.67;;
71836;SDS011;59686;51.716;7.016;2022-12-07T00:23:51;10.50;;;8.83;;
71836;SDS011;59686;51.716;7.016;2022-12-07T00:28:58;9.60;;;8.50;;
71836;SDS011;59686;51.716;7.016;2022-12-07T00:31:29;10.40;;;7.73;;
71836;SDS011;59686;51.716;7.016;2022-12-07T00:33:58;9.77;;;8.47;;
71836;SDS011;59686;51.716;7.016;2022-12-07T00:36:28;11.70;;;8.60;;
71836;SDS011;59686;51.716;7.016;2022-12-07T00:38:54;9.67;;;8.27;;
71836;SDS011;59686;51.716;7.016;2022-12-07T00:41:23;11.60;;;8.33;;
71836;SDS011;59686;51.716;7.016;2022-12-07T00:43:50;9.97;;;8.57;;
71836;SDS011;59686;51.716;7.016;2022-12-07T00:46:17;11.93;;;8.40;;
71836;SDS011;59686;51.716;7.016;2022-12-07T00:48:44;11.13;;;8.20;;
71836;SDS011;59686;51.716;7.016;2022-12-07T00:51:10;11.80;;;8.50;;
71836;SDS011;59686;51.716;7.016;2022-12-07T00:53:38;10.57;;;8.97;;
71836;SDS011;59686;51.716;7.016;2022-12-07T00:56:05;10.23;;;8.67;;
71836;SDS011;59686;51.716;7.016;2022-12-07T00:58:31;11.30;;;8.90;;
71836;SDS011;59686;51.716;7.016;2022-12-07T01:00:59;10.47;;;9.30;;
71836;SDS011;59686;51.716;7.016;2022-12-07T01:03:27;10.17;;;8.90;;
71836;SDS011;59686;51.716;7.016;2022-12-07T01:05:53;13.50;;;9.23;;
71836;SDS011;59686;51.716;7.016;2022-12-07T01:08:20;11.10;;;8.57;;
71836;SDS011;59686;51.716;7.016;2022-12-07T01:11:07;9.43;;;8.43;;
71836;SDS011;59686;51.716;7.016;2022-12-07T01:13:34;10.23;;;8.37;;
71836;SDS011;59686;51.716;7.016;2022-12-07T01:16:01;10.00;;;8.30;;
71836;SDS011;59686;51.716;7.016;2022-12-07T01:18:30;9.63;;;8.43;;
71836;SDS011;59686;51.716;7.016;2022-12-07T01:20:59;11.47;;;9.03;;
71836;SDS011;59686;51.716;7.016;2022-12-07T01:23:30;14.03;;;9.17;;
71836;SDS011;59686;51.716;7.016;2022-12-07T01:26:00;9.83;;;8.83;;
71836;SDS011;59686;51.716;7.016;2022-12-07T01:28:28;9.73;;;8.70;;
71836;SDS011;59686;51.716;7.016;2022-12-07T01:30:58;13.43;;;9.67;;
71836;SDS011;59686;51.716;7.016;2022-12-07T01:33:29;10.67;;;8.37;;
71836;SDS011;59686;51.716;7.016;2022-12-07T01:39:01;9.83;;;8.60;;
71836;SDS011;59686;51.716;7.016;2022-12-07T01:41:33;11.20;;;9.27;;
71836;SDS011;59686;51.716;7.016;2022-12-07T01:46:50;11.03;;;9.67;;
71836;SDS011;59686;51.716;7.016;2022-12-07T01:52:02;12.43;;;9.70;;
71836;SDS011;59686;51.716;7.016;2022-12-07T01:54:38;11.53;;;9.90;;
71836;SDS011;59686;51.716;7.016;2022-12-07T01:57:04;10.20;;;9.20;;
71836;SDS011;59686;51.716;7.016;2022-12-07T01:59:32;10.90;;;9.20;;
71836;SDS011;59686;51.716;7.016;2022-12-07T02:01:59;10.27;;;8.77;;
71836;SDS011;59686;51.716;7.016;2022-12-07T02:04:29;12.77;;;9.70;;
71836;SDS011;59686;51.716;7.016;2022-12-07T02:06:55;11.30;;;9.70;;
71836;SDS011;59686;51.716;7.016;2022-12-07T02:09:21;10.77;;;9.07;;
71836;SDS011;59686;51.716;7.016;2022-12-07T02:11:47;10.13;;;8.80;;
71836;SDS011;59686;51.716;7.016;2022-12-07T02:14:13;12.73;;;9.67;;
71836;SDS011;59686;51.716;7.016;2022-12-07T02:27:50;11.07;;;8.80;;
71836;SDS011;59686;51.716;7.016;2022-12-07T02:30:27;10.87;;;9.60;;
71836;SDS011;59686;51.716;7.016;2022-12-07T02:35:34;11.53;;;8.63;;
71836;SDS011;59686;51.716;7.016;2022-12-07T02:40:34;10.87;;;8.90;;
71836;SDS011;59686;51.716;7.016;2022-12-07T02:43:24;11.63;;;8.97;;
71836;SDS011;59686;51.716;7.016;2022-12-07T02:46:01;10.03;;;8.20;;
71836;SDS011;59686;51.716;7.016;2022-12-07T02:48:33;10.27;;;8.77;;
71836;SDS011;59686;51.716;7.016;2022-12-07T02:51:00;11.63;;;8.50;;
71836;SDS011;59686;51.716;7.016;2022-12-07T02:56:00;10.53;;;9.40;;
71836;SDS011;59686;51.716;7.016;2022-12-07T03:16:27;10.53;;;8.73;;
71836;SDS011;59686;51.716;7.016;2022-12-07T03:18:56;9.93;;;8.50;;
71836;SDS011;59686;51.716;7.016;2022-12-07T03:21:27;9.90;;;8.90;;
71836;SDS011;59686;51.716;7.016;2022-12-07T03:23:59;11.87;;;8.93;;
71836;SDS011;59686;51.716;7.016;2022-12-07T03:26:32;9.93;;;8.93;;
71836;SDS011;59686;51.716;7.016;2022-12-07T03:29:02;10.43;;;8.87;;
71836;SDS011;59686;51.716;7.016;2022-12-07T03:31:44;10.53;;;8.50;;
71836;SDS011;59686;51.716;7.016;2022-12-07T03:34:30;10.07;;;8.60;;
71836;SDS011;59686;51.716;7.016;2022-12-07T03:37:11;9.03;;;8.13;;
71836;SDS011;59686;51.716;7.016;2022-12-07T03:39:47;12.17;;;8.27;;
71836;SDS011;59686;51.716;7.016;2022-12-07T03:42:24;9.53;;;8.47;;
71836;SDS011;59686;51.716;7.016;2022-12-07T03:44:50;9.33;;;7.97;;
71836;SDS011;59686;51.716;7.016;2022-12-07T03:50:29;9.10;;;8.20;;
71836;SDS011;59686;51.716;7.016;2022-12-07T03:52:53;9.53;;;8.17;;
71836;SDS011;59686;51.716;7.016;2022-12-07T03:58:22;9.93;;;7.97;;
71836;SDS011;59686;51.716;7.016;2022-12-07T04:00:49;10.60;;;8.47;;
71836;SDS011;59686;51.716;7.016;2022-12-07T04:03:15;10.57;;;8.23;;
71836;SDS011;59686;51.716;7.016;2022-12-07T04:05:41;10.07;;;7.90;;
71836;SDS011;59686;51.716;7.016;2022-12-07T04:08:08;9.57;;;7.50;;
71836;SDS011;59686;51.716;7.016;2022-12-07T04:13:18;8.90;;;7.27;;
71836;SDS011;59686;51.716;7.016;2022-12-07T04:15:44;9.23;;;7.53;;
71836;SDS011;59686;51.716;7.016;2022-12-07T04:18:09;8.20;;;7.30;;
71836;SDS011;59686;51.716;7.016;2022-12-07T04:20:35;8.90;;;8.00;;
71836;SDS011;59686;51.716;7.016;2022-12-07T04:23:01;8.03;;;7.23;;
71836;SDS011;59686;51.716;7.016;2022-12-07T04:25:26;8.70;;;7.60;;
71836;SDS011;59686;51.716;7.016;2022-12-07T04:27:52;8.83;;;7.30;;
71836;SDS011;59686;51.716;7.016;2022-12-07T04:30:18;9.10;;;7.20;;
71836;SDS011;59686;51.716;7.016;2022-12-07T04:32:44;8.60;;;7.63;;
71836;SDS011;59686;51.716;7.016;2022-12-07T04:35:10;7.53;;;6.73;;
71836;SDS011;59686;51.716;7.016;2022-12-07T04:37:35;7.93;;;7.13;;
71836;SDS011;59686;51.716;7.016;2022-12-07T04:40:04;9.43;;;7.30;;
71836;SDS011;59686;51.716;7.016;2022-12-07T04:42:32;8.43;;;7.20;;
71836;SDS011;59686;51.716;7.016;2022-12-07T04:44:58;7.90;;;7.10;;
71836;SDS011;59686;51.716;7.016;2022-12-07T04:47:24;8.17;;;6.57;;
71836;SDS011;59686;51.716;7.016;2022-12-07T04:50:00;10.20;;;7.07;;
71836;SDS011;59686;51.716;7.016;2022-12-07T04:52:25;8.10;;;6.60;;
71836;SDS011;59686;51.716;7.016;2022-12-07T04:54:51;7.57;;;6.80;;
71836;SDS011;59686;51.716;7.016;2022-12-07T04:57:16;10.57;;;7.07;;
71836;SDS011;59686;51.716;7.016;2022-12-07T04:59:42;9.67;;;6.77;;
71836;SDS011;59686;51.716;7.016;2022-12-07T05:02:08;9.87;;;6.80;;
71836;SDS011;59686;51.716;7.016;2022-12-07T05:04:33;12.50;;;6.63;;
71836;SDS011;59686;51.716;7.016;2022-12-07T05:06:59;7.97;;;6.90;;
71836;SDS011;59686;51.716;7.016;2022-12-07T05:09:42;9.53;;;6.53;;
71836;SDS011;59686;51.716;7.016;2022-12-07T05:12:07;8.63;;;6.83;;
71836;SDS011;59686;51.716;7.016;2022-12-07T05:14:33;8.47;;;6.37;;
71836;SDS011;59686;51.716;7.016;2022-12-07T05:16:59;8.30;;;6.60;;
71836;SDS011;59686;51.716;7.016;2022-12-07T05:19:24;7.10;;;6.40;;
71836;SDS011;59686;51.716;7.016;2022-12-07T05:21:51;8.63;;;6.40;;
71836;SDS011;59686;51.716;7.016;2022-12-07T05:24:17;7.00;;;6.30;;
71836;SDS011;59686;51.716;7.016;2022-12-07T05:26:43;8.83;;;6.83;;
71836;SDS011;59686;51.716;7.016;2022-12-07T05:29:13;8.53;;;6.63;;
71836;SDS011;59686;51.716;7.016;2022-12-07T05:31:41;8.20;;;6.73;;
71836;SDS011;59686;51.716;7.016;2022-12-07T05:34:07;8.53;;;6.73;;
71836;SDS011;59686;51.716;7.016;2022-12-07T05:36:32;9.93;;;6.60;;
71836;SDS011;59686;51.716;7.016;2022-12-07T05:38:58;8.43;;;6.27;;
71836;SDS011;59686;51.716;7.016;2022-12-07T05:41:24;7.93;;;6.27;;
71836;SDS011;59686;51.716;7.016;2022-12-07T05:44:18;9.50;;;7.37;;
71836;SDS011;59686;51.716;7.016;2022-12-07T05:46:44;9.63;;;6.70;;
71836;SDS011;59686;51.716;7.016;2022-12-07T05:49:10;9.10;;;7.07;;
71836;SDS011;59686;51.716;7.016;2022-12-07T05:51:35;9.73;;;6.77;;
71836;SDS011;59686;51.716;7.016;2022-12-07T05:54:01;7.77;;;6.50;;
71836;SDS011;59686;51.716;7.016;2022-12-07T05:56:27;7.50;;;6.33;;
71836;SDS011;59686;51.716;7.016;2022-12-07T05:58:53;11.40;;;6.90;;
71836;SDS011;59686;51.716;7.016;2022-12-07T06:01:37;9.00;;;6.73;;
71836;SDS011;59686;51.716;7.016;2022-12-07T06:04:03;10.60;;;6.90;;
71836;SDS011;59686;51.716;7.016;2022-12-07T06:06:29;10.17;;;7.13;;
71836;SDS011;59686;51.716;7.016;2022-12-07T06:08:54;12.70;;;6.57;;
71836;SDS011;59686;51.716;7.016;2022-12-07T06:11:20;8.57;;;6.70;;
71836;SDS011;59686;51.716;7.016;2022-12-07T06:14:04;9.37;;;6.30;;
71836;SDS011;59686;51.716;7.016;2022-12-07T06:16:30;11.47;;;6.90;;
71836;SDS011;59686;51.716;7.016;2022-12-07T06:19:09;8.90;;;6.40;;
71836;SDS011;59686;51.716;7.016;2022-12-07T06:21:35;8.70;;;6.47;;
71836;SDS011;59686;51.716;7.016;2022-12-07T06:24:01;9.57;;;6.60;;
71836;SDS011;59686;51.716;7.016;2022-12-07T06:26:27;8.27;;;6.67;;
71836;SDS011;59686;51.716;7.016;2022-12-07T06:28:52;9.50;;;7.27;;
71836;SDS011;59686;51.716;7.016;2022-12-07T06:31:18;9.70;;;7.37;;
71836;SDS011;59686;51.716;7.016;2022-12-07T06:33:44;9.67;;;7.17;;
71836;SDS011;59686;51.716;7.016;2022-12-07T06:36:10;12.00;;;7.63;;
71836;SDS011;59686;51.716;7.016;2022-12-07T06:38:36;7.83;;;6.70;;
71836;SDS011;59686;51.716;7.016;2022-12-07T06:41:02;10.37;;;8.13;;
71836;SDS011;59686;51.716;7.016;2022-12-07T06:43:28;13.77;;;10.00;;
71836;SDS011;59686;51.716;7.016;2022-12-07T06:45:54;14.77;;;10.03;;
71836;SDS011;59686;51.716;7.016;2022-12-07T06:48:20;14.77;;;10.83;;
71836;SDS011;59686;51.716;7.016;2022-12-07T06:50:46;14.27;;;11.03;;
71836;SDS011;59686;51.716;7.016;2022-12-07T06:53:12;16.10;;;12.17;;
71836;SDS011;59686;51.716;7.016;2022-12-07T06:55:38;17.47;;;13.13;;
71836;SDS011;59686;51.716;7.016;2022-12-07T06:58:04;15.57;;;12.03;;
71836;SDS011;59686;51.716;7.016;2022-12-07T07:00:30;14.17;;;11.40;;
71836;SDS011;59686;51.716;7.016;2022-12-07T07:02:55;16.07;;;12.00;;
71836;SDS011;59686;51.716;7.016;2022-12-07T07:05:21;15.70;;;11.00;;
71836;SDS011;59686;51.716;7.016;2022-12-07T07:07:48;13.90;;;10.40;;
71836;SDS011;59686;51.716;7.016;2022-12-07T07:10:14;13.00;;;10.10;;
71836;SDS011;59686;51.716;7.016;2022-12-07T07:12:39;12.40;;;9.83;;
71836;SDS011;59686;51.716;7.016;2022-12-07T07:15:05;12.07;;;9.33;;
71836;SDS011;59686;51.716;7.016;2022-12-07T07:17:31;13.13;;;9.23;;
71836;SDS011;59686;51.716;7.016;2022-12-07T07:19:57;12.97;;;9.77;;
71836;SDS011;59686;51.716;7.016;2022-12-07T07:22:22;14.10;;;9.20;;
71836;SDS011;59686;51.716;7.016;2022-12-07T07:24:48;13.73;;;9.47;;
71836;SDS011;59686;51.716;7.016;2022-12-07T07:27:14;11.10;;;9.17;;
71836;SDS011;59686;51.716;7.016;2022-12-07T07:29:39;12.43;;;9.17;;
71836;SDS011;59686;51.716;7.016;2022-12-07T07:32:05;12.00;;;8.63;;
71836;SDS011;59686;51.716;7.016;2022-12-07T07:34:32;12.90;;;8.50;;
71836;SDS011;59686;51.716;7.016;2022-12-07T07:36:58;10.20;;;7.87;;
71836;SDS011;59686;51.716;7.016;2022-12-07T07:39:24;11.20;;;8.57;;
71836;SDS011;59686;51.716;7.016;2022-12-07T07:41:49;11.37;;;7.90;;
71836;SDS011;59686;51.716;7.016;2022-12-07T07:44:23;10.30;;;7.83;;
71836;SDS011;59686;51.716;7.016;2022-12-07T07:46:49;9.40;;;7.60;;
71836;SDS011;59686;51.716;7.016;2022-12-07T07:49:14;8.87;;;7.53;;
71836;SDS011;59686;51.716;7.016;2022-12-07T07:51:40;8.60;;;6.73;;
71836;SDS011;59686;51.716;7.016;2022-12-07T07:54:06;9.93;;;7.23;;
71836;SDS011;59686;51.716;7.016;2022-12-07T07:56:31;8.53;;;7.13;;
71836;SDS011;59686;51.716;7.016;2022-12-07T07:58:57;10.07;;;7.27;;
71836;SDS011;59686;51.716;7.016;2022-12-07T08:01:22;9.40;;;6.87;;
71836;SDS011;59686;51.716;7.016;2022-12-07T08:03:48;8.87;;;6.53;;
71836;SDS011;59686;51.716;7.016;2022-12-07T08:06:14;9.30;;;6.77;;
71836;SDS011;59686;51.716;7.016;2022-12-07T08:08:40;9.60;;;7.27;;
71836;SDS011;59686;51.716;7.016;2022-12-07T08:11:06;10.40;;;6.83;;
71836;SDS011;59686;51.716;7.016;2022-12-07T08:13:32;7.70;;;6.53;;
71836;SDS011;59686;51.716;7.016;2022-12-07T08:15:58;10.33;;;6.77;;
71836;SDS011;59686;51.716;7.016;2022-12-07T08:18:29;9.43;;;6.37;;
71836;SDS011;59686;51.716;7.016;2022-12-07T08:21:01;9.87;;;6.30;;
71836;SDS011;59686;51.716;7.016;2022-12-07T08:23:27;8.43;;;6.17;;
71836;SDS011;59686;51.716;7.016;2022-12-07T08:25:53;10.03;;;6.00;;
71836;SDS011;59686;51.716;7.016;2022-12-07T08:28:18;6.07;;;5.27;;
71836;SDS011;59686;51.716;7.016;2022-12-07T08:30:44;10.50;;;6.50;;
71836;SDS011;59686;51.716;7.016;2022-12-07T08:33:10;7.57;;;5.90;;
71836;SDS011;59686;51.716;7.016;2022-12-07T08:35:36;11.07;;;6.13;;
71836;SDS011;59686;51.716;7.016;2022-12-07T08:38:02;7.90;;;5.70;;
71836;SDS011;59686;51.716;7.016;2022-12-07T08:40:28;10.60;;;5.93;;
71836;SDS011;59686;51.716;7.016;2022-12-07T08:42:55;11.03;;;5.70;;
71836;SDS011;59686;51.716;7.016;2022-12-07T08:45:21;7.77;;;5.83;;
71836;SDS011;59686;51.716;7.016;2022-12-07T08:50:25;7.83;;;6.10;;
71836;SDS011;59686;51.716;7.016;2022-12-07T08:52:52;8.37;;;5.57;;
71836;SDS011;59686;51.716;7.016;2022-12-07T08:55:20;7.93;;;5.90;;
71836;SDS011;59686;51.716;7.016;2022-12-07T08:57:47;6.97;;;5.13;;
71836;SDS011;59686;51.716;7.016;2022-12-07T09:00:13;7.73;;;5.30;;
71836;SDS011;59686;51.716;7.016;2022-12-07T09:02:39;10.50;;;4.97;;
71836;SDS011;59686;51.716;7.016;2022-12-07T09:05:05;7.90;;;5.73;;
71836;SDS011;59686;51.716;7.016;2022-12-07T09:07:32;8.80;;;5.67;;
71836;SDS011;59686;51.716;7.016;2022-12-07T09:09:59;8.53;;;4.97;;
71836;SDS011;59686;51.716;7.016;2022-12-07T09:12:25;7.70;;;5.00;;
71836;SDS011;59686;51.716;7.016;2022-12-07T09:14:51;9.73;;;5.30;;
71836;SDS011;59686;51.716;7.016;2022-12-07T09:17:16;8.77;;;4.87;;
71836;SDS011;59686;51.716;7.016;2022-12-07T09:19:42;6.27;;;4.83;;
71836;SDS011;59686;51.716;7.016;2022-12-07T09:22:08;6.17;;;4.57;;
71836;SDS011;59686;51.716;7.016;2022-12-07T09:24:34;7.63;;;4.70;;
71836;SDS011;59686;51.716;7.016;2022-12-07T09:27:00;7.80;;;4.40;;
71836;SDS011;59686;51.716;7.016;2022-12-07T09:29:25;7.37;;;4.80;;
71836;SDS011;59686;51.716;7.016;2022-12-07T09:31:51;9.37;;;5.10;;
71836;SDS011;59686;51.716;7.016;2022-12-07T09:34:17;10.07;;;4.80;;
71836;SDS011;59686;51.716;7.016;2022-12-07T09:36:43;6.43;;;4.20;;
71836;SDS011;59686;51.716;7.016;2022-12-07T09:39:09;6.93;;;4.80;;
71836;SDS011;59686;51.716;7.016;2022-12-07T09:41:47;8.07;;;4.00;;
71836;SDS011;59686;51.716;7.016;2022-12-07T09:44:14;9.70;;;4.57;;
71836;SDS011;59686;51.716;7.016;2022-12-07T09:46:48;7.93;;;4.00;;
71836;SDS011;59686;51.716;7.016;2022-12-07T09:49:16;8.57;;;4.20;;
71836;SDS011;59686;51.716;7.016;2022-12-07T09:51:47;6.67;;;3.93;;
71836;SDS011;59686;51.716;7.016;2022-12-07T09:54:24;6.10;;;3.80;;
71836;SDS011;59686;51.716;7.016;2022-12-07T09:56:49;8.47;;;4.03;;
71836;SDS011;59686;51.716;7.016;2022-12-07T09:59:18;6.13;;;3.63;;
71836;SDS011;59686;51.716;7.016;2022-12-07T10:01:45;8.27;;;4.27;;
71836;SDS011;59686;51.716;7.016;2022-12-07T10:04:15;10.30;;;3.60;;
71836;SDS011;59686;51.716;7.016;2022-12-07T10:06:44;5.03;;;3.23;;
71836;SDS011;59686;51.716;7.016;2022-12-07T10:09:17;5.10;;;3.10;;
71836;SDS011;59686;51.716;7.016;2022-12-07T10:14:53;8.63;;;3.47;;
71836;SDS011;59686;51.716;7.016;2022-12-07T10:22:37;4.93;;;2.80;;
71836;SDS011;59686;51.716;7.016;2022-12-07T10:25:19;7.40;;;2.70;;
71836;SDS011;59686;51.716;7.016;2022-12-07T10:27:59;7.10;;;2.73;;
71836;SDS011;59686;51.716;7.016;2022-12-07T10:30:31;8.43;;;2.90;;
71836;SDS011;59686;51.716;7.016;2022-12-07T10:32:58;6.00;;;3.23;;
71836;SDS011;59686;51.716;7.016;2022-12-07T10:37:51;5.20;;;2.60;;
71836;SDS011;59686;51.716;7.016;2022-12-07T10:40:29;10.27;;;2.80;;
71836;SDS011;59686;51.716;7.016;2022-12-07T10:43:00;7.87;;;2.73;;
71836;SDS011;59686;51.716;7.016;2022-12-07T10:45:32;6.30;;;2.80;;
71836;SDS011;59686;51.716;7.016;2022-12-07T10:48:10;4.73;;;2.60;;
71836;SDS011;59686;51.716;7.016;2022-12-07T10:53:58;6.43;;;2.73;;
71836;SDS011;59686;51.716;7.016;2022-12-07T11:07:33;9.07;;;2.73;;
71836;SDS011;59686;51.716;7.016;2022-12-07T11:12:57;5.73;;;2.43;;
71836;SDS011;59686;51.716;7.016;2022-12-07T11:15:33;6.47;;;2.47;;
71836;SDS011;59686;51.716;7.016;2022-12-07T11:21:28;4.97;;;2.30;;
71836;SDS011;59686;51.716;7.016;2022-12-07T11:24:13;7.40;;;3.00;;
71836;SDS011;59686;51.716;7.016;2022-12-07T11:32:38;6.07;;;3.47;;
71836;SDS011;59686;51.716;7.016;2022-12-07T11:35:14;8.30;;;3.40;;
71836;SDS011;59686;51.716;7.016;2022-12-07T11:37:55;7.67;;;3.63;;
71836;SDS011;59686;51.716;7.016;2022-12-07T11:40:26;8.63;;;3.50;;
71836;SDS011;59686;51.716;7.016;2022-12-07T11:43:02;6.47;;;2.70;;
71836;SDS011;59686;51.716;7.016;2022-12-07T11:45:41;6.17;;;3.00;;
71836;SDS011;59686;51.716;7.016;2022-12-07T11:50:43;7.03;;;2.80;;
71836;SDS011;59686;51.716;7.016;2022-12-07T11:53:24;6.90;;;3.27;;
71836;SDS011;59686;51.716;7.016;2022-12-07T12:07:16;6.27;;;2.13;;
71836;SDS011;59686;51.716;7.016;2022-12-07T12:10:13;4.73;;;1.83;;
71836;SDS011;59686;51.716;7.016;2022-12-07T12:21:20;3.67;;;1.80;;
71836;SDS011;59686;51.716;7.016;2022-12-07T12:23:58;4.30;;;2.20;;
71836;SDS011;59686;51.716;7.016;2022-12-07T12:26:30;3.93;;;1.80;;
71836;SDS011;59686;51.716;7.016;2022-12-07T12:29:03;5.47;;;1.97;;
71836;SDS011;59686;51.716;7.016;2022-12-07T12:31:32;7.03;;;2.00;;
71836;SDS011;59686;51.716;7.016;2022-12-07T12:34:03;5.00;;;1.93;;
71836;SDS011;59686;51.716;7.016;2022-12-07T12:36:49;4.77;;;2.00;;
71836;SDS011;59686;51.716;7.016;2022-12-07T12:39:16;5.90;;;2.10;;
71836;SDS011;59686;51.716;7.016;2022-12-07T12:51:59;6.23;;;2.00;;
71836;SDS011;59686;51.716;7.016;2022-12-07T12:55:02;4.77;;;1.93;;
71836;SDS011;59686;51.716;7.016;2022-12-07T12:57:45;7.07;;;2.10;;
71836;SDS011;59686;51.716;7.016;2022-12-07T13:02:49;7.80;;;2.10;;
71836;SDS011;59686;51.716;7.016;2022-12-07T13:05:20;4.73;;;2.23;;
71836;SDS011;59686;51.716;7.016;2022-12-07T13:15:43;5.80;;;1.50;;
71836;SDS011;59686;51.716;7.016;2022-12-07T13:23:21;4.47;;;1.70;;
71836;SDS011;59686;51.716;7.016;2022-12-07T13:28:44;4.77;;;1.70;;
71836;SDS011;59686;51.716;7.016;2022-12-07T13:34:00;4.40;;;1.70;;
71836;SDS011;59686;51.716;7.016;2022-12-07T13:36:30;3.90;;;1.83;;
71836;SDS011;59686;51.716;7.016;2022-12-07T13:41:58;5.33;;;2.20;;
71836;SDS011;59686;51.716;7.016;2022-12-07T13:44:27;5.57;;;2.27;;
71836;SDS011;59686;51.716;7.016;2022-12-07T13:47:19;8.83;;;2.23;;
71836;SDS011;59686;51.716;7.016;2022-12-07T13:49:52;4.70;;;2.10;;
71836;SDS011;59686;51.716;7.016;2022-12-07T13:54:49;6.73;;;2.27;;
71836;SDS011;59686;51.716;7.016;2022-12-07T13:57:20;7.87;;;2.13;;
71836;SDS011;59686;51.716;7.016;2022-12-07T13:59:47;6.10;;;2.20;;
71836;SDS011;59686;51.716;7.016;2022-12-07T14:02:25;6.83;;;2.03;;
71836;SDS011;59686;51.716;7.016;2022-12-07T14:05:06;7.20;;;2.10;;
71836;SDS011;59686;51.716;7.016;2022-12-07T14:08:40;5.33;;;2.10;;
71836;SDS011;59686;51.716;7.016;2022-12-07T14:10:42;6.50;;;2.00;;
71836;SDS011;59686;51.716;7.016;2022-12-07T14:16:05;5.60;;;2.27;;
71836;SDS011;59686;51.716;7.016;2022-12-07T14:19:00;6.60;;;2.10;;
71836;SDS011;59686;51.716;7.016;2022-12-07T14:21:29;6.50;;;2.10;;
71836;SDS011;59686;51.716;7.016;2022-12-07T14:26:28;7.33;;;2.27;;
71836;SDS011;59686;51.716;7.016;2022-12-07T14:29:18;4.87;;;1.87;;
71836;SDS011;59686;51.716;7.016;2022-12-07T14:31:52;5.67;;;1.57;;
71836;SDS011;59686;51.716;7.016;2022-12-07T14:34:22;4.27;;;1.80;;
71836;SDS011;59686;51.716;7.016;2022-12-07T14:36:48;7.47;;;2.10;;
71836;SDS011;59686;51.716;7.016;2022-12-07T14:39:15;6.60;;;2.00;;
71836;SDS011;59686;51.716;7.016;2022-12-07T14:41:43;5.87;;;2.10;;
71836;SDS011;59686;51.716;7.016;2022-12-07T14:44:22;4.50;;;2.23;;
71836;SDS011;59686;51.716;7.016;2022-12-07T14:46:48;8.37;;;2.30;;
71836;SDS011;59686;51.716;7.016;2022-12-07T14:49:16;4.57;;;2.07;;
71836;SDS011;59686;51.716;7.016;2022-12-07T14:51:42;4.73;;;2.10;;
71836;SDS011;59686;51.716;7.016;2022-12-07T14:54:16;7.37;;;2.13;;
71836;SDS011;59686;51.716;7.016;2022-12-07T14:56:43;4.60;;;2.40;;
71836;SDS011;59686;51.716;7.016;2022-12-07T14:59:10;4.47;;;2.07;;
71836;SDS011;59686;51.716;7.016;2022-12-07T15:01:37;5.63;;;2.50;;
71836;SDS011;59686;51.716;7.016;2022-12-07T15:04:04;7.27;;;2.30;;
71836;SDS011;59686;51.716;7.016;2022-12-07T15:06:30;6.40;;;2.30;;
71836;SDS011;59686;51.716;7.016;2022-12-07T15:08:56;7.47;;;2.43;;
71836;SDS011;59686;51.716;7.016;2022-12-07T15:11:21;7.80;;;2.30;;
71836;SDS011;59686;51.716;7.016;2022-12-07T15:13:47;5.60;;;2.17;;
71836;SDS011;59686;51.716;7.016;2022-12-07T15:16:31;4.17;;;2.10;;
71836;SDS011;59686;51.716;7.016;2022-12-07T15:18:57;4.80;;;2.00;;
71836;SDS011;59686;51.716;7.016;2022-12-07T15:21:22;6.83;;;2.00;;
71836;SDS011;59686;51.716;7.016;2022-12-07T15:23:48;4.67;;;2.13;;
71836;SDS011;59686;51.716;7.016;2022-12-07T15:26:14;4.80;;;2.00;;
71836;SDS011;59686;51.716;7.016;2022-12-07T15:28:40;5.27;;;2.10;;
71836;SDS011;59686;51.716;7.016;2022-12-07T15:31:13;5.40;;;2.00;;
71836;SDS011;59686;51.716;7.016;2022-12-07T15:33:39;6.07;;;2.20;;
71836;SDS011;59686;51.716;7.016;2022-12-07T15:36:05;3.70;;;2.13;;
71836;SDS011;59686;51.716;7.016;2022-12-07T15:38:31;6.20;;;2.00;;
71836;SDS011;59686;51.716;7.016;2022-12-07T15:40:57;4.23;;;1.73;;
71836;SDS011;59686;51.716;7.016;2022-12-07T15:43:23;6.27;;;2.07;;
71836;SDS011;59686;51.716;7.016;2022-12-07T15:46:07;4.73;;;1.83;;
71836;SDS011;59686;51.716;7.016;2022-12-07T15:48:32;5.07;;;2.10;;
71836;SDS011;59686;51.716;7.016;2022-12-07T15:51:05;8.00;;;2.20;;
71836;SDS011;59686;51.716;7.016;2022-12-07T15:53:33;5.87;;;2.40;;
71836;SDS011;59686;51.716;7.016;2022-12-07T15:55:59;3.77;;;1.93;;
71836;SDS011;59686;51.716;7.016;2022-12-07T15:58:25;8.37;;;2.67;;
71836;SDS011;59686;51.716;7.016;2022-12-07T16:00:51;6.23;;;2.63;;
71836;SDS011;59686;51.716;7.016;2022-12-07T16:03:17;5.00;;;2.90;;
71836;SDS011;59686;51.716;7.016;2022-12-07T16:05:48;5.73;;;2.77;;
71836;SDS011;59686;51.716;7.016;2022-12-07T16:08:14;6.30;;;3.50;;
71836;SDS011;59686;51.716;7.016;2022-12-07T16:10:40;8.83;;;3.53;;
71836;SDS011;59686;51.716;7.016;2022-12-07T16:13:08;6.53;;;3.50;;
71836;SDS011;59686;51.716;7.016;2022-12-07T16:15:41;10.17;;;4.10;;
71836;SDS011;59686;51.716;7.016;2022-12-07T16:18:07;5.40;;;3.80;;
71836;SDS011;59686;51.716;7.016;2022-12-07T16:20:34;8.87;;;3.90;;
71836;SDS011;59686;51.716;7.016;2022-12-07T16:22:59;5.63;;;3.70;;
71836;SDS011;59686;51.716;7.016;2022-12-07T16:25:30;7.13;;;3.73;;
71836;SDS011;59686;51.716;7.016;2022-12-07T16:27:56;8.93;;;3.70;;
71836;SDS011;59686;51.716;7.016;2022-12-07T16:30:21;7.87;;;3.87;;
71836;SDS011;59686;51.716;7.016;2022-12-07T16:32:56;6.37;;;2.93;;
71836;SDS011;59686;51.716;7.016;2022-12-07T16:35:22;6.60;;;3.07;;
71836;SDS011;59686;51.716;7.016;2022-12-07T16:37:47;7.60;;;3.10;;
71836;SDS011;59686;51.716;7.016;2022-12-07T16:40:13;6.90;;;2.60;;
71836;SDS011;59686;51.716;7.016;2022-12-07T16:42:39;9.80;;;3.27;;
71836;SDS011;59686;51.716;7.016;2022-12-07T16:45:05;5.33;;;2.90;;
71836;SDS011;59686;51.716;7.016;2022-12-07T16:47:31;4.93;;;2.60;;
71836;SDS011;59686;51.716;7.016;2022-12-07T16:49:56;9.50;;;2.50;;
71836;SDS011;59686;51.716;7.016;2022-12-07T16:52:22;5.73;;;2.57;;
71836;SDS011;59686;51.716;7.016;2022-12-07T16:54:48;5.07;;;2.60;;
71836;SDS011;59686;51.716;7.016;2022-12-07T16:57:14;5.20;;;2.50;;
71836;SDS011;59686;51.716;7.016;2022-12-07T16:59:40;3.93;;;2.30;;
71836;SDS011;59686;51.716;7.016;2022-12-07T17:02:10;4.87;;;2.47;;
71836;SDS011;59686;51.716;7.016;2022-12-07T17:04:37;4.37;;;2.23;;
71836;SDS011;59686;51.716;7.016;2022-12-07T17:07:07;5.37;;;2.27;;
71836;SDS011;59686;51.716;7.016;2022-12-07T17:09:33;4.90;;;2.20;;
71836;SDS011;59686;51.716;7.016;2022-12-07T17:12:00;6.33;;;1.90;;
71836;SDS011;59686;51.716;7.016;2022-12-07T17:14:26;4.13;;;2.20;;
71836;SDS011;59686;51.716;7.016;2022-12-07T17:17:10;4.30;;;2.50;;
71836;SDS011;59686;51.716;7.016;2022-12-07T17:19:36;3.90;;;2.30;;
71836;SDS011;59686;51.716;7.016;2022-12-07T17:22:01;7.23;;;2.37;;
71836;SDS011;59686;51.716;7.016;2022-12-07T17:24:27;5.70;;;2.80;;
71836;SDS011;59686;51.716;7.016;2022-12-07T17:26:53;6.20;;;3.17;;
71836;SDS011;59686;51.716;7.016;2022-12-07T17:29:18;7.97;;;3.33;;
71836;SDS011;59686;51.716;7.016;2022-12-07T17:31:45;5.97;;;3.40;;
71836;SDS011;59686;51.716;7.016;2022-12-07T17:34:12;6.63;;;3.37;;
71836;SDS011;59686;51.716;7.016;2022-12-07T17:36:39;4.93;;;2.90;;